SBKG/CPV METAR and TAF weather

Enter ICAO airport designator
Station Type Date Time Source
SBKG METAR 2021/03/09 10:00 UTC NOAA

SBKG 091000Z 10005KT 9999 SCT017 SCT018 22/22 Q1014


Station Type Date Time Source
SBKG Decoded METAR 2021/03/09 10:00 UTC NOAA

Campina Grande, Brazil (SBKG) 07-13S 035-53W
Mar 09, 2021 - 05:00 AM EST / 2021.03.09 1000 UTC
Wind: from the E (100 degrees) at 6 MPH (5 KT):0
Visibility: greater than 7 mile(s):0
Sky conditions: partly cloudy
Temperature: 71 F (22 C)
Dew Point: 71 F (22 C)
Relative Humidity: 100%
Pressure (altimeter): 29.94 in. Hg (1014 hPa)
ob: SBKG 091000Z 10005KT 9999 SCT017 SCT018 22/22 Q1014
cycle: 10

Station Type Date Time Source
SBKG TAF 2021/03/09 06:27 UTC NOAA

TAF SBKG 090325Z 0906/0918 09007KT 7000 SCT016 TN23/0910Z TX31/0918Z
BECMG 0909/0911 11011KT
RMK PGW

Example: see airport list